createdAt,value
2023-01-11T00:00:19.155Z,0.47
2023-01-11T00:05:19.122Z,0.39
2023-01-11T00:10:19.132Z,0.5
2023-01-11T00:15:19.108Z,0.71
2023-01-11T00:20:19.129Z,0.93
2023-01-11T00:25:19.126Z,1.08
2023-01-11T00:30:19.121Z,1.19
2023-01-11T00:35:19.130Z,1.29
2023-01-11T00:40:19.109Z,1.33
2023-01-11T00:45:19.107Z,1.38
2023-01-11T00:50:19.104Z,1.4
2023-01-11T00:55:19.100Z,1.48
2023-01-11T01:00:19.082Z,1.57
2023-01-11T01:05:19.128Z,1.67
2023-01-11T01:10:19.096Z,1.71
2023-01-11T01:15:19.147Z,1.78
2023-01-11T01:20:19.088Z,1.76
2023-01-11T01:25:19.093Z,1.78
2023-01-11T01:30:19.107Z,1.87
2023-01-11T01:35:19.086Z,1.94
2023-01-11T01:40:19.062Z,2.03
2023-01-11T01:45:19.098Z,2.08
2023-01-11T01:50:19.082Z,2.11
2023-01-11T01:55:19.054Z,2.08
2023-01-11T02:00:19.079Z,2.07
2023-01-11T02:05:19.079Z,2.08
2023-01-11T02:10:19.067Z,2.07
2023-01-11T02:15:19.092Z,2.05
2023-01-11T02:20:19.080Z,2.04
2023-01-11T02:25:19.027Z,2.07
2023-01-11T02:30:19.082Z,2.09
2023-01-11T02:35:19.061Z,2.12
2023-01-11T02:40:19.072Z,2.12
2023-01-11T02:45:19.041Z,2.14
2023-01-11T02:50:19.041Z,2.12
2023-01-11T02:55:19.072Z,2.12
2023-01-11T03:00:19.054Z,2.08
2023-01-11T03:05:19.039Z,2.09
2023-01-11T03:10:19.060Z,2.08
2023-01-11T03:15:19.041Z,2.08
2023-01-11T03:20:19.034Z,2.08
2023-01-11T03:25:19.040Z,2.08
2023-01-11T03:30:19.034Z,2.09
2023-01-11T03:35:19.024Z,2.09
2023-01-11T03:40:19.023Z,2.04
2023-01-11T03:45:19.025Z,1.99
2023-01-11T03:50:19.015Z,2.04
2023-01-11T03:55:19.027Z,2.06
2023-01-11T04:00:19.012Z,2.08
2023-01-11T04:05:19.049Z,2.14
2023-01-11T04:10:19.049Z,2.17
2023-01-11T04:15:19.179Z,2.12
2023-01-11T04:20:19.004Z,2.08
2023-01-11T04:25:19.011Z,2.09
2023-01-11T04:30:18.998Z,2.03
2023-01-11T04:35:18.999Z,1.91
2023-01-11T04:45:19.044Z,1.59
2023-01-11T04:50:19.007Z,1.64
2023-01-11T04:55:18.982Z,1.58
2023-01-11T05:00:19.013Z,1.64
2023-01-11T05:05:19.026Z,1.78
2023-01-11T05:10:20.966Z,1.88
2023-01-11T05:15:18.990Z,1.9
2023-01-11T05:20:18.977Z,2
2023-01-11T05:25:18.976Z,2.11
2023-01-11T05:30:18.969Z,2.21
2023-01-11T05:35:18.954Z,2.32
2023-01-11T05:40:18.983Z,2.33
2023-01-11T05:45:18.953Z,2.44
2023-01-11T05:50:18.963Z,2.5
2023-01-11T05:55:18.963Z,2.58
2023-01-11T06:00:18.982Z,2.65
2023-01-11T06:15:18.947Z,2.81
2023-01-11T06:20:18.955Z,2.87
2023-01-11T06:25:18.941Z,2.9
2023-01-11T06:45:18.923Z,3.07
2023-01-11T06:50:18.940Z,3.1
2023-01-11T06:55:18.920Z,3.16
2023-01-11T07:10:18.913Z,3.27
2023-01-11T07:15:18.926Z,3.32
2023-01-11T07:35:18.934Z,3.59
2023-01-11T07:40:18.920Z,3.65
2023-01-11T07:45:18.948Z,3.72
2023-01-11T07:50:18.925Z,3.8
2023-01-11T07:55:18.909Z,3.91
2023-01-11T08:00:18.896Z,3.96
2023-01-11T08:05:18.904Z,4.06
2023-01-11T08:10:18.905Z,4.08
2023-01-11T08:15:18.900Z,4.19
2023-01-11T08:20:18.880Z,4.2
2023-01-11T08:25:18.884Z,4.43
2023-01-11T08:30:18.911Z,4.59
2023-01-11T08:40:18.882Z,4.79
2023-01-11T08:45:18.861Z,4.9
2023-01-11T08:50:18.872Z,5.07
2023-01-11T08:55:18.900Z,5.29
2023-01-11T09:00:18.879Z,5.44
2023-01-11T09:05:18.883Z,5.64
2023-01-11T09:10:18.838Z,5.76
2023-01-11T09:15:18.863Z,5.84
2023-01-11T09:20:18.831Z,5.97
2023-01-11T09:25:18.822Z,6.05
2023-01-11T09:30:18.850Z,6.22
2023-01-11T09:35:18.807Z,6.43
2023-01-11T09:40:18.832Z,6.49
2023-01-11T09:45:18.837Z,6.57
2023-01-11T09:50:18.817Z,6.66
2023-01-11T09:55:18.808Z,6.7
2023-01-11T10:00:18.812Z,6.76
2023-01-11T10:05:18.806Z,7
2023-01-11T10:18:24.842Z,7.17
2023-01-11T10:20:18.873Z,7.32
2023-01-11T10:25:18.942Z,7.44
2023-01-11T10:30:18.791Z,7.59
2023-01-11T10:35:18.770Z,7.62
2023-01-11T10:40:18.798Z,7.75
2023-01-11T10:45:18.769Z,7.69
2023-01-11T10:50:18.786Z,7.76
2023-01-11T10:55:18.800Z,7.74
2023-01-11T11:00:18.779Z,7.73
2023-01-11T11:05:18.739Z,7.69
2023-01-11T11:10:18.754Z,7.62
2023-01-11T11:15:18.736Z,7.52
2023-01-11T11:20:18.761Z,7.42
2023-01-11T11:25:18.743Z,7.38
2023-01-11T11:30:18.774Z,7.41
2023-01-11T11:35:18.777Z,7.46
2023-01-11T11:40:18.782Z,7.44
2023-01-11T11:45:18.713Z,7.6
2023-01-11T11:50:23.620Z,7.69
2023-01-11T11:55:18.727Z,7.91
2023-01-11T12:00:18.728Z,8.03
2023-01-11T12:05:18.722Z,8.11
2023-01-11T12:10:18.734Z,8.13
2023-01-11T12:15:18.715Z,8.12
2023-01-11T12:20:18.705Z,8.12
2023-01-11T12:25:18.685Z,8.14
2023-01-11T12:30:20.205Z,8.15
2023-01-11T12:35:18.679Z,8.18
2023-01-11T12:40:18.676Z,8.23
2023-01-11T12:45:18.661Z,8.22
2023-01-11T12:50:18.674Z,8.28
2023-01-11T12:55:18.658Z,8.3
2023-01-11T13:00:18.656Z,8.3
2023-01-11T13:05:18.673Z,8.31
2023-01-11T13:10:18.655Z,8.34
2023-01-11T13:15:18.663Z,8.39
2023-01-11T13:20:18.639Z,8.3
2023-01-11T13:25:18.638Z,8.3
2023-01-11T13:30:18.615Z,8.34
2023-01-11T13:35:18.642Z,8.35
2023-01-11T13:40:18.652Z,8.39
2023-01-11T13:45:18.599Z,8.29
2023-01-11T13:50:18.599Z,8.21
2023-01-11T13:55:25.892Z,8.22
2023-01-11T14:00:18.627Z,8.19
2023-01-11T14:05:18.614Z,8.11
2023-01-11T14:10:18.606Z,8.05
2023-01-11T14:15:18.586Z,7.92
2023-01-11T14:20:18.590Z,7.79
2023-01-11T14:25:18.579Z,7.68
2023-01-11T14:30:18.577Z,7.56
2023-01-11T14:35:18.570Z,7.46
2023-01-11T14:40:18.575Z,7.33
2023-01-11T14:45:18.559Z,7.2
2023-01-11T14:50:18.533Z,7.14
2023-01-11T14:55:18.551Z,7
2023-01-11T15:00:18.659Z,6.95
2023-01-11T15:05:18.550Z,6.9
2023-01-11T15:10:18.559Z,6.87
2023-01-11T15:15:18.547Z,6.78
2023-01-11T15:20:18.537Z,6.72
2023-01-11T15:25:18.517Z,6.65
2023-01-11T15:30:18.516Z,6.59
2023-01-11T15:35:18.528Z,6.55
2023-01-11T15:40:18.542Z,6.46
2023-01-11T15:45:18.526Z,6.42
2023-01-11T15:50:18.498Z,6.37
2023-01-11T15:55:18.523Z,6.32
2023-01-11T16:00:18.509Z,6.29
2023-01-11T16:05:18.488Z,6.24
2023-01-11T16:10:18.493Z,6.2
2023-01-11T16:15:18.481Z,6.17
2023-01-11T16:20:18.512Z,6.17
2023-01-11T16:25:18.464Z,6.26
2023-01-11T16:30:18.460Z,6.48
2023-01-11T16:35:18.497Z,6.67
2023-01-11T16:40:18.470Z,6.86
2023-01-11T16:45:18.486Z,7
2023-01-11T16:50:18.465Z,7.09
2023-01-11T16:55:18.465Z,7.26
2023-01-11T17:00:34.154Z,8.36
2023-01-11T17:05:18.439Z,8.87
2023-01-11T17:10:18.452Z,9.33
2023-01-11T17:15:18.423Z,9.4
2023-01-11T17:20:18.465Z,8.87
2023-01-11T17:25:18.407Z,8.53
2023-01-11T17:30:18.416Z,8.39
2023-01-11T17:35:18.414Z,8.24
2023-01-11T17:40:18.446Z,8.12
2023-01-11T17:45:20.582Z,8.03
2023-01-11T17:50:18.429Z,7.95
2023-01-11T17:55:18.388Z,7.92
2023-01-11T18:00:18.414Z,7.9
2023-01-11T18:05:18.419Z,7.82
2023-01-11T18:10:18.384Z,7.8
2023-01-11T18:15:18.375Z,7.76
2023-01-11T18:20:18.370Z,7.73
2023-01-11T18:25:18.367Z,7.68
2023-01-11T18:30:18.355Z,7.68
2023-01-11T18:35:18.982Z,7.65
2023-01-11T18:40:18.348Z,7.61
2023-01-11T18:45:18.399Z,7.55
2023-01-11T18:50:19.690Z,7.5
2023-01-11T18:55:18.354Z,7.44
2023-01-11T19:00:18.339Z,7.4
2023-01-11T19:05:18.354Z,7.36
2023-01-11T19:10:18.325Z,7.32
2023-01-11T19:15:18.326Z,7.3
2023-01-11T19:20:18.328Z,7.25
2023-01-11T19:25:18.363Z,7.22
2023-01-11T19:30:18.308Z,7.17
2023-01-11T19:35:18.322Z,7.09
2023-01-11T19:40:18.330Z,7
2023-01-11T19:45:18.298Z,7
2023-01-11T19:50:18.367Z,7
2023-01-11T19:55:18.286Z,6.93
2023-01-11T20:00:18.322Z,6.86
2023-01-11T20:05:18.313Z,6.79
2023-01-11T20:10:18.303Z,6.73
2023-01-11T20:15:18.270Z,6.68
2023-01-11T20:20:18.260Z,6.67
2023-01-11T20:25:18.310Z,6.67
2023-01-11T20:30:18.272Z,6.62
2023-01-11T20:35:18.250Z,6.56
2023-01-11T20:40:18.263Z,6.46
2023-01-11T20:45:18.254Z,6.4
2023-01-11T20:55:18.262Z,6.2
2023-01-11T21:00:18.288Z,6.19
2023-01-11T21:10:18.222Z,6.22
2023-01-11T21:25:18.221Z,5.94
2023-01-11T21:35:18.213Z,5.82
2023-01-11T21:40:18.211Z,5.77
2023-01-11T21:45:18.200Z,5.7
2023-01-11T22:05:18.202Z,5.67
2023-01-11T22:10:18.231Z,5.64
2023-01-11T22:15:18.192Z,5.61
2023-01-11T22:20:18.192Z,5.61
2023-01-11T22:25:18.200Z,5.59
2023-01-11T22:30:18.178Z,5.64
2023-01-11T22:35:18.196Z,5.68
2023-01-11T22:40:18.168Z,5.75
2023-01-11T22:45:18.174Z,5.84
2023-01-11T22:50:18.174Z,5.91
2023-01-11T22:55:18.192Z,5.94
2023-01-11T23:00:18.153Z,5.96
2023-01-11T23:05:18.161Z,5.99
2023-01-11T23:10:18.151Z,6.05
2023-01-11T23:15:18.150Z,6.05
2023-01-11T23:20:18.140Z,6.01
2023-01-11T23:25:18.148Z,6.05
2023-01-11T23:30:18.143Z,6.07
2023-01-11T23:35:18.130Z,6.13
2023-01-11T23:40:18.124Z,6.16
2023-01-11T23:45:18.144Z,6.18
2023-01-11T23:50:18.134Z,6.14
2023-01-11T23:55:18.120Z,6.05
